createdAt,value
2017-08-23T00:00:09.816Z,0
2017-08-23T00:01:10.155Z,0
2017-08-23T00:02:09.806Z,0
2017-08-23T00:03:10.071Z,0
2017-08-23T00:04:09.758Z,0
2017-08-23T00:05:10.369Z,0
2017-08-23T00:06:10.628Z,0
2017-08-23T00:07:10.380Z,0
2017-08-23T00:08:09.477Z,0
2017-08-23T00:09:10.284Z,0
2017-08-23T00:10:09.971Z,0
2017-08-23T00:11:09.978Z,0
2017-08-23T00:12:10.317Z,0
2017-08-23T00:13:09.614Z,0
2017-08-23T00:14:10.027Z,0
2017-08-23T00:15:09.642Z,0
2017-08-23T00:16:10.244Z,0
2017-08-23T00:17:09.553Z,0
2017-08-23T00:18:09.727Z,0
2017-08-23T00:19:10.134Z,0
2017-08-23T00:20:10.159Z,0
2017-08-23T00:21:10.080Z,0
2017-08-23T00:22:09.159Z,0
2017-08-23T00:23:09.796Z,0
2017-08-23T00:24:09.736Z,0
2017-08-23T00:25:08.847Z,0
2017-08-23T00:26:09.707Z,0
2017-08-23T00:27:09.737Z,0
2017-08-23T00:28:09.678Z,0
2017-08-23T00:29:09.376Z,0
2017-08-23T00:30:10.000Z,0
2017-08-23T00:31:09.627Z,0
2017-08-23T00:32:09.605Z,0
2017-08-23T00:33:09.909Z,0
2017-08-23T00:34:09.637Z,0
2017-08-23T00:35:09.557Z,0
2017-08-23T00:36:09.540Z,0
2017-08-23T00:37:09.583Z,0
2017-08-23T00:38:09.807Z,0
2017-08-23T00:39:09.591Z,0
2017-08-23T00:40:09.766Z,0
2017-08-23T00:41:09.779Z,0
2017-08-23T00:42:09.199Z,0
2017-08-23T00:43:09.404Z,0
2017-08-23T00:44:09.726Z,0
2017-08-23T00:45:08.757Z,0
2017-08-23T00:46:09.366Z,0
2017-08-23T00:47:09.726Z,0
2017-08-23T00:48:09.681Z,0
2017-08-23T00:49:09.678Z,0
2017-08-23T00:50:09.220Z,0
2017-08-23T00:51:09.598Z,0
2017-08-23T00:52:09.617Z,0
2017-08-23T00:53:09.069Z,0
2017-08-23T00:54:08.938Z,0
2017-08-23T00:55:09.662Z,0
2017-08-23T00:56:08.986Z,0
2017-08-23T00:57:09.177Z,0
2017-08-23T00:58:09.176Z,0
2017-08-23T00:59:09.157Z,0
2017-08-23T01:00:09.477Z,0
2017-08-23T01:01:09.448Z,0
2017-08-23T01:02:09.086Z,0
2017-08-23T01:03:08.769Z,0
2017-08-23T01:04:09.072Z,0
2017-08-23T01:05:09.054Z,0
2017-08-23T01:06:08.703Z,0
2017-08-23T01:07:09.374Z,0
2017-08-23T01:08:09.356Z,0
2017-08-23T01:09:08.966Z,0
2017-08-23T01:10:09.282Z,0
2017-08-23T01:11:09.347Z,0
2017-08-23T01:12:09.244Z,0
2017-08-23T01:13:09.232Z,0
2017-08-23T01:14:09.209Z,0
2017-08-23T01:15:08.266Z,0
2017-08-23T01:16:09.174Z,0
2017-08-23T01:17:08.206Z,0
2017-08-23T01:18:09.206Z,0
2017-08-23T01:19:08.194Z,0
2017-08-23T01:20:08.484Z,0
2017-08-23T01:21:08.490Z,0
2017-08-23T01:22:08.448Z,0
2017-08-23T01:23:08.438Z,0
2017-08-23T01:24:08.428Z,0
2017-08-23T01:25:08.105Z,0
2017-08-23T01:26:08.087Z,0
2017-08-23T01:27:08.673Z,0
2017-08-23T01:28:08.669Z,0
2017-08-23T01:29:08.638Z,0
2017-08-23T01:30:08.927Z,0
2017-08-23T01:31:08.307Z,0
2017-08-23T01:32:08.580Z,0
2017-08-23T01:33:08.581Z,0
2017-08-23T01:34:08.567Z,0
2017-08-23T01:35:08.229Z,0
2017-08-23T01:36:08.538Z,0
2017-08-23T01:37:08.508Z,0
2017-08-23T01:38:08.484Z,0
2017-08-23T01:39:08.456Z,0
2017-08-23T01:40:08.445Z,0
2017-08-23T01:41:08.187Z,0
2017-08-23T01:42:08.409Z,0
2017-08-23T01:43:08.386Z,0
2017-08-23T01:44:08.329Z,0
2017-08-23T01:45:08.068Z,0
2017-08-23T01:46:08.058Z,0
2017-08-23T01:47:08.364Z,0
2017-08-23T01:48:08.635Z,0
2017-08-23T01:49:08.666Z,0
2017-08-23T01:50:08.828Z,0
2017-08-23T01:51:08.263Z,0
2017-08-23T01:52:08.558Z,0
2017-08-23T01:53:08.525Z,0
2017-08-23T01:54:07.969Z,0
2017-08-23T01:55:08.202Z,0
2017-08-23T01:56:07.937Z,0
2017-08-23T01:57:08.480Z,0
2017-08-23T01:58:08.168Z,0
2017-08-23T01:59:07.938Z,0
2017-08-23T02:00:08.103Z,0
2017-08-23T02:01:08.397Z,0
2017-08-23T02:02:08.068Z,0
2017-08-23T02:03:07.797Z,0
2017-08-23T02:04:08.351Z,0
2017-08-23T02:05:07.718Z,0
2017-08-23T02:06:07.792Z,0
2017-08-23T02:07:08.291Z,0
2017-08-23T02:08:07.659Z,0
2017-08-23T02:09:07.738Z,0
2017-08-23T02:10:08.253Z,0
2017-08-23T02:11:07.608Z,0
2017-08-23T02:12:07.282Z,0
2017-08-23T02:13:07.567Z,0
2017-08-23T02:14:07.568Z,0
2017-08-23T02:15:08.210Z,0
2017-08-23T02:16:08.138Z,0
2017-08-23T02:17:07.568Z,0
2017-08-23T02:18:07.584Z,0
2017-08-23T02:19:08.081Z,0
2017-08-23T02:20:07.169Z,0
2017-08-23T02:21:07.839Z,0
2017-08-23T02:22:07.727Z,0
2017-08-23T02:23:07.411Z,0
2017-08-23T02:24:07.397Z,0
2017-08-23T02:25:07.381Z,0
2017-08-23T02:26:07.652Z,0
2017-08-23T02:27:07.338Z,0
2017-08-23T02:28:07.310Z,0
2017-08-23T02:29:07.598Z,0
2017-08-23T02:30:07.020Z,0
2017-08-23T02:31:07.278Z,0
2017-08-23T02:32:07.252Z,0
2017-08-23T02:33:07.289Z,0
2017-08-23T02:34:07.821Z,0
2017-08-23T02:35:07.825Z,0
2017-08-23T02:36:07.486Z,0
2017-08-23T02:37:07.159Z,0
2017-08-23T02:38:07.560Z,0
2017-08-23T02:39:07.492Z,0
2017-08-23T02:40:07.423Z,0
2017-08-23T02:41:07.106Z,0
2017-08-23T02:42:07.068Z,0
2017-08-23T02:43:07.439Z,0
2017-08-23T02:44:07.051Z,0
2017-08-23T02:45:07.356Z,0
2017-08-23T02:46:06.999Z,0
2017-08-23T02:47:07.620Z,0
2017-08-23T02:48:07.344Z,0
2017-08-23T02:49:06.904Z,0
2017-08-23T02:50:06.952Z,0
2017-08-23T02:51:07.303Z,0
2017-08-23T02:52:07.225Z,0
2017-08-23T02:53:07.260Z,0
2017-08-23T02:54:07.170Z,0
2017-08-23T02:55:07.162Z,0
2017-08-23T02:56:07.487Z,0
2017-08-23T02:57:07.421Z,0
2017-08-23T02:58:07.409Z,0
2017-08-23T02:59:07.411Z,0
2017-08-23T03:00:07.183Z,0
2017-08-23T03:01:07.359Z,0
2017-08-23T03:02:07.351Z,0
2017-08-23T03:03:07.330Z,0
2017-08-23T03:04:07.309Z,0
2017-08-23T03:05:06.670Z,0
2017-08-23T03:06:06.651Z,0
2017-08-23T03:07:06.651Z,0
2017-08-23T03:08:07.250Z,0
2017-08-23T03:09:06.620Z,0
2017-08-23T03:10:06.908Z,0
2017-08-23T03:11:07.191Z,0
2017-08-23T03:12:06.249Z,0
2017-08-23T03:13:07.195Z,0
2017-08-23T03:14:06.525Z,0
2017-08-23T03:15:06.842Z,0
2017-08-23T03:16:06.896Z,0
2017-08-23T03:17:06.787Z,0
2017-08-23T03:18:06.775Z,0
2017-08-23T03:19:06.752Z,0
2017-08-23T03:20:06.766Z,0
2017-08-23T03:21:06.719Z,0
2017-08-23T03:22:06.684Z,0
2017-08-23T03:23:06.671Z,0
2017-08-23T03:24:06.653Z,0
2017-08-23T03:25:07.201Z,0
2017-08-23T03:26:06.597Z,0
2017-08-23T03:27:06.919Z,0
2017-08-23T03:28:06.882Z,0
2017-08-23T03:29:07.130Z,0
2017-08-23T03:30:06.863Z,0
2017-08-23T03:31:06.664Z,0
2017-08-23T03:32:06.227Z,0
2017-08-23T03:33:06.792Z,0
2017-08-23T03:34:05.855Z,0
2017-08-23T03:35:06.486Z,0
2017-08-23T03:36:06.782Z,0
2017-08-23T03:37:06.736Z,0
2017-08-23T03:38:06.101Z,0
2017-08-23T03:39:06.410Z,0
2017-08-23T03:40:06.699Z,0
2017-08-23T03:41:05.756Z,0
2017-08-23T03:42:05.800Z,0
2017-08-23T03:43:06.390Z,0
2017-08-23T03:44:06.622Z,0
2017-08-23T03:45:05.694Z,0
2017-08-23T03:46:06.374Z,0
2017-08-23T03:47:05.973Z,0
2017-08-23T03:48:06.665Z,0
2017-08-23T03:49:05.962Z,0
2017-08-23T03:50:06.190Z,0
2017-08-23T03:51:06.012Z,0
2017-08-23T03:52:05.872Z,0
2017-08-23T03:53:06.478Z,0
2017-08-23T03:54:06.214Z,0
2017-08-23T03:55:05.848Z,0
2017-08-23T03:56:05.804Z,0
2017-08-23T03:57:06.083Z,0
2017-08-23T03:58:06.075Z,0
2017-08-23T03:59:06.399Z,0
2017-08-23T04:00:05.844Z,0
2017-08-23T04:01:06.410Z,0
2017-08-23T04:02:05.364Z,0
2017-08-23T04:03:06.270Z,0
2017-08-23T04:04:05.954Z,0
2017-08-23T04:05:05.611Z,0
2017-08-23T04:06:05.352Z,0
2017-08-23T04:07:06.211Z,0
2017-08-23T04:08:05.276Z,0
2017-08-23T04:09:05.551Z,0
2017-08-23T04:10:06.193Z,0
2017-08-23T04:11:05.989Z,0
2017-08-23T04:12:05.581Z,0
2017-08-23T04:13:05.504Z,0
2017-08-23T04:14:06.074Z,0
2017-08-23T04:15:05.452Z,0
2017-08-23T04:16:05.752Z,0
2017-08-23T04:17:06.026Z,0
2017-08-23T04:18:06.090Z,0
2017-08-23T04:19:05.682Z,0
2017-08-23T04:20:06.031Z,0
2017-08-23T04:21:05.636Z,0
2017-08-23T04:22:05.691Z,0
2017-08-23T04:23:05.297Z,0
2017-08-23T04:24:05.903Z,0
2017-08-23T04:25:06.027Z,0
2017-08-23T04:26:04.929Z,0
2017-08-23T04:27:05.223Z,0
2017-08-23T04:28:04.922Z,0
2017-08-23T04:29:05.504Z,0
2017-08-23T04:30:05.475Z,5
2017-08-23T04:31:05.459Z,5
2017-08-23T04:32:05.462Z,5
2017-08-23T04:33:05.418Z,5
2017-08-23T04:34:05.097Z,5
2017-08-23T04:35:05.410Z,5
2017-08-23T04:36:05.066Z,5
2017-08-23T04:37:05.042Z,5
2017-08-23T04:38:05.332Z,10
2017-08-23T04:39:05.334Z,10
2017-08-23T04:40:05.622Z,10
2017-08-23T04:41:05.614Z,10
2017-08-23T04:42:05.613Z,10
2017-08-23T04:43:04.948Z,10
2017-08-23T04:44:04.918Z,10
2017-08-23T04:45:05.518Z,15
2017-08-23T04:46:05.201Z,15
2017-08-23T04:47:04.565Z,15
2017-08-23T04:48:05.159Z,15
2017-08-23T04:49:04.843Z,15
2017-08-23T04:50:04.792Z,15
2017-08-23T04:51:05.094Z,20
2017-08-23T04:52:05.099Z,20
2017-08-23T04:53:05.168Z,20
2017-08-23T04:54:04.777Z,20
2017-08-23T04:55:05.078Z,20
2017-08-23T04:56:05.008Z,25
2017-08-23T04:57:04.724Z,25
2017-08-23T04:58:05.082Z,25
2017-08-23T04:59:05.011Z,25
2017-08-23T05:00:04.944Z,25
2017-08-23T05:01:04.747Z,30
2017-08-23T05:02:04.307Z,30
2017-08-23T05:03:04.654Z,30
2017-08-23T05:04:04.873Z,30
2017-08-23T05:05:04.929Z,35
2017-08-23T05:06:05.149Z,35
2017-08-23T05:07:04.824Z,35
2017-08-23T05:08:04.800Z,35
2017-08-23T05:09:04.793Z,35
2017-08-23T05:10:04.814Z,40
2017-08-23T05:11:04.793Z,40
2017-08-23T05:12:04.769Z,40
2017-08-23T05:13:04.763Z,40
2017-08-23T05:14:04.703Z,45
2017-08-23T05:15:04.756Z,45
2017-08-23T05:16:04.674Z,45
2017-08-23T05:17:05.007Z,45
2017-08-23T05:18:05.007Z,50
2017-08-23T05:19:04.964Z,50
2017-08-23T05:20:04.924Z,50
2017-08-23T05:21:04.923Z,50
2017-08-23T05:22:04.611Z,55
2017-08-23T05:23:04.228Z,55
2017-08-23T05:24:04.833Z,55
2017-08-23T05:25:04.833Z,55
2017-08-23T05:26:04.821Z,60
2017-08-23T05:27:04.838Z,60
2017-08-23T05:28:04.162Z,60
2017-08-23T05:29:04.450Z,60
2017-08-23T05:30:04.754Z,60
2017-08-23T05:31:04.705Z,65
2017-08-23T05:32:04.605Z,65
2017-08-23T05:33:04.061Z,65
2017-08-23T05:34:04.356Z,65
2017-08-23T05:35:04.323Z,65
2017-08-23T05:36:04.353Z,65
2017-08-23T05:37:04.291Z,65
2017-08-23T05:38:04.264Z,70
2017-08-23T05:39:03.972Z,70
2017-08-23T05:40:04.243Z,70
2017-08-23T05:41:03.615Z,70
2017-08-23T05:42:03.594Z,75
2017-08-23T05:43:03.966Z,75
2017-08-23T05:44:03.874Z,75
2017-08-23T05:45:03.864Z,75
2017-08-23T05:46:04.433Z,80
2017-08-23T05:47:04.511Z,80
2017-08-23T05:48:04.191Z,80
2017-08-23T05:49:03.813Z,80
2017-08-23T05:50:04.105Z,85
2017-08-23T05:51:04.275Z,85
2017-08-23T05:52:03.715Z,85
2017-08-23T05:53:03.715Z,85
2017-08-23T05:54:03.994Z,90
2017-08-23T05:55:04.486Z,90
2017-08-23T05:56:03.341Z,90
2017-08-23T05:57:04.324Z,90
2017-08-23T05:58:03.927Z,95
2017-08-23T05:59:03.913Z,95
2017-08-23T06:00:03.904Z,95
2017-08-23T06:01:03.577Z,95
2017-08-23T06:02:03.883Z,100
2017-08-23T06:03:02.924Z,100
2017-08-23T06:04:03.816Z,100
2017-08-23T06:05:03.294Z,105
2017-08-23T06:06:04.114Z,105
2017-08-23T06:07:03.774Z,105
2017-08-23T06:08:03.133Z,105
2017-08-23T06:09:03.759Z,110
2017-08-23T06:10:02.795Z,110
2017-08-23T06:11:04.067Z,110
2017-08-23T06:12:03.674Z,115
2017-08-23T06:13:03.901Z,115
2017-08-23T06:14:03.647Z,115
2017-08-23T06:15:03.635Z,120
2017-08-23T06:16:03.933Z,120
2017-08-23T06:17:03.590Z,120
2017-08-23T06:18:02.964Z,125
2017-08-23T06:19:03.253Z,125
2017-08-23T06:20:03.564Z,125
2017-08-23T06:21:03.869Z,130
2017-08-23T06:22:03.509Z,130
2017-08-23T06:23:03.832Z,130
2017-08-23T06:24:03.794Z,135
2017-08-23T06:25:03.477Z,135
2017-08-23T06:26:03.434Z,135
2017-08-23T06:27:03.446Z,135
2017-08-23T06:28:02.784Z,140
2017-08-23T06:29:02.815Z,140
2017-08-23T06:30:03.687Z,140
2017-08-23T06:31:03.064Z,140
2017-08-23T06:32:03.146Z,140
2017-08-23T06:33:03.023Z,140
2017-08-23T06:34:03.039Z,140
2017-08-23T06:35:02.999Z,140
2017-08-23T06:36:02.963Z,140
2017-08-23T06:37:02.937Z,140
2017-08-23T06:38:03.252Z,145
2017-08-23T06:39:02.914Z,145
2017-08-23T06:40:03.203Z,145
2017-08-23T06:41:03.536Z,145
2017-08-23T06:42:03.481Z,145
2017-08-23T06:43:03.141Z,150
2017-08-23T06:44:03.165Z,150
2017-08-23T06:45:03.132Z,150
2017-08-23T06:46:02.799Z,155
2017-08-23T06:47:02.774Z,155
2017-08-23T06:48:03.071Z,155
2017-08-23T06:49:03.069Z,160
2017-08-23T06:50:03.366Z,160
2017-08-23T06:51:02.425Z,160
2017-08-23T06:52:03.012Z,165
2017-08-23T06:53:02.992Z,165
2017-08-23T06:54:02.664Z,165
2017-08-23T06:55:02.347Z,170
2017-08-23T06:56:02.331Z,175
2017-08-23T06:57:02.939Z,180
2017-08-23T06:58:03.223Z,185
2017-08-23T06:59:03.391Z,260
2017-08-23T07:00:02.574Z,440
2017-08-23T07:01:02.559Z,615
2017-08-23T07:02:03.062Z,810
2017-08-23T07:03:02.523Z,955
2017-08-23T07:04:03.065Z,1000
2017-08-23T07:05:02.484Z,1010
2017-08-23T07:06:02.491Z,1010
2017-08-23T07:07:02.991Z,990
2017-08-23T07:08:02.545Z,985
2017-08-23T07:09:02.765Z,1000
2017-08-23T07:10:03.034Z,1025
2017-08-23T07:11:02.432Z,1055
2017-08-23T07:12:02.491Z,1080
2017-08-23T07:13:02.686Z,1055
2017-08-23T07:14:02.997Z,1035
2017-08-23T07:15:02.972Z,1020
2017-08-23T07:16:02.418Z,1035
2017-08-23T07:17:02.494Z,1005
2017-08-23T07:18:02.353Z,865
2017-08-23T07:19:02.679Z,665
2017-08-23T07:20:02.631Z,480
2017-08-23T07:21:02.334Z,330
2017-08-23T07:22:03.021Z,245
2017-08-23T07:23:02.286Z,230
2017-08-23T07:24:02.981Z,225
2017-08-23T07:25:02.590Z,225
2017-08-23T07:26:02.919Z,230
2017-08-23T07:27:02.593Z,235
2017-08-23T07:28:02.713Z,240
2017-08-23T07:29:02.631Z,300
2017-08-23T07:30:02.864Z,650
2017-08-23T07:31:02.593Z,1040
2017-08-23T07:32:02.905Z,1130
2017-08-23T07:33:02.252Z,1120
2017-08-23T07:34:02.537Z,1160
2017-08-23T07:35:02.524Z,1190
2017-08-23T07:36:02.328Z,1175
2017-08-23T07:37:02.495Z,1160
2017-08-23T07:38:02.225Z,1165
2017-08-23T07:39:02.484Z,1170
2017-08-23T07:40:02.491Z,1185
2017-08-23T07:41:02.492Z,1185
2017-08-23T07:42:02.495Z,1180
2017-08-23T07:43:02.495Z,1185
2017-08-23T07:44:02.484Z,1205
2017-08-23T07:45:02.505Z,1235
2017-08-23T07:46:02.214Z,1225
2017-08-23T07:47:02.463Z,1230
2017-08-23T07:48:02.524Z,1250
2017-08-23T07:49:02.495Z,1235
2017-08-23T07:50:02.552Z,1230
2017-08-23T07:51:02.659Z,1265
2017-08-23T07:52:02.492Z,1270
2017-08-23T07:53:02.437Z,1235
2017-08-23T07:54:02.453Z,1220
2017-08-23T07:55:02.745Z,1285
2017-08-23T07:56:02.538Z,1410
2017-08-23T07:57:02.524Z,1490
2017-08-23T07:58:02.430Z,1360
2017-08-23T07:59:02.512Z,1205
2017-08-23T08:00:02.443Z,1255
2017-08-23T08:01:02.726Z,1365
2017-08-23T08:02:02.443Z,1380
2017-08-23T08:03:02.431Z,1355
2017-08-23T08:04:02.717Z,1335
2017-08-23T08:05:02.403Z,1340
2017-08-23T08:06:02.450Z,1360
2017-08-23T08:07:02.693Z,1360
2017-08-23T08:08:02.914Z,1360
2017-08-23T08:09:02.707Z,1350
2017-08-23T08:10:02.703Z,1300
2017-08-23T08:11:02.704Z,1265
2017-08-23T08:12:02.109Z,1295
2017-08-23T08:13:02.583Z,1365
2017-08-23T08:14:02.418Z,1405
2017-08-23T08:15:02.388Z,1385
2017-08-23T08:16:02.385Z,1375
2017-08-23T08:17:02.449Z,1365
2017-08-23T08:18:02.379Z,1360
2017-08-23T08:19:02.612Z,1365
2017-08-23T08:20:02.685Z,1390
2017-08-23T08:21:02.393Z,1430
2017-08-23T08:22:02.446Z,1390
2017-08-23T08:23:02.672Z,1330
2017-08-23T08:24:02.682Z,1350
2017-08-23T08:25:02.414Z,1420
2017-08-23T08:26:02.715Z,1410
2017-08-23T08:27:02.704Z,1390
2017-08-23T08:28:02.444Z,1425
2017-08-23T08:29:02.711Z,1470
2017-08-23T08:30:02.403Z,1445
2017-08-23T08:31:02.640Z,1395
2017-08-23T08:32:02.385Z,1295
2017-08-23T08:33:02.484Z,1220
2017-08-23T08:34:02.703Z,1295
2017-08-23T08:35:02.721Z,1320
2017-08-23T08:36:02.378Z,1120
2017-08-23T08:37:02.385Z,995
2017-08-23T08:38:02.396Z,1150
2017-08-23T08:39:02.676Z,1420
2017-08-23T08:40:02.685Z,1490
2017-08-23T08:41:02.727Z,1510
2017-08-23T08:42:02.686Z,1525
2017-08-23T08:43:02.404Z,1445
2017-08-23T08:44:02.382Z,1440
2017-08-23T08:45:02.393Z,1480
2017-08-23T08:46:02.395Z,1440
2017-08-23T08:47:02.513Z,1395
2017-08-23T08:48:02.404Z,1400
2017-08-23T08:49:02.712Z,1450
2017-08-23T08:50:02.782Z,1455
2017-08-23T08:51:02.399Z,1445
2017-08-23T08:52:02.444Z,1355
2017-08-23T08:53:02.412Z,1350
2017-08-23T08:54:02.494Z,1435
2017-08-23T08:55:02.712Z,1495
2017-08-23T08:56:02.701Z,1480
2017-08-23T08:57:02.731Z,1255
2017-08-23T08:58:02.742Z,1070
2017-08-23T08:59:02.401Z,1015
2017-08-23T09:00:02.721Z,915
2017-08-23T09:01:02.746Z,1025
2017-08-23T09:02:02.382Z,1170
2017-08-23T09:03:02.402Z,1375
2017-08-23T09:04:02.403Z,1295
2017-08-23T09:05:02.504Z,1135
2017-08-23T09:06:02.435Z,1210
2017-08-23T09:07:02.701Z,1150
2017-08-23T09:08:02.553Z,1045
2017-08-23T09:09:02.470Z,1035
2017-08-23T09:10:02.434Z,1105
2017-08-23T09:11:02.401Z,1290
2017-08-23T09:12:02.521Z,1315
2017-08-23T09:13:02.758Z,1385
2017-08-23T09:14:02.622Z,1340
2017-08-23T09:15:03.016Z,1335
2017-08-23T09:16:02.103Z,1395
2017-08-23T09:17:02.740Z,1430
2017-08-23T09:18:02.420Z,1440
2017-08-23T09:19:02.429Z,1495
2017-08-23T09:20:02.430Z,1455
2017-08-23T09:21:02.430Z,1280
2017-08-23T09:22:02.441Z,1315
2017-08-23T09:23:02.684Z,1450
2017-08-23T09:24:02.119Z,1410
2017-08-23T09:25:02.709Z,1320
2017-08-23T09:26:02.396Z,1225
2017-08-23T09:27:02.702Z,1380
2017-08-23T09:28:02.441Z,1335
2017-08-23T09:29:02.455Z,1330
2017-08-23T09:30:02.510Z,1320
2017-08-23T09:31:02.730Z,1320
2017-08-23T09:32:02.414Z,1265
2017-08-23T09:33:02.476Z,1280
2017-08-23T09:34:02.910Z,1320
2017-08-23T09:35:02.112Z,1295
2017-08-23T09:36:02.518Z,1265
2017-08-23T09:37:02.419Z,1255
2017-08-23T09:38:02.160Z,1310
2017-08-23T09:39:02.497Z,1255
2017-08-23T09:40:02.781Z,1185
2017-08-23T09:41:02.468Z,1210
2017-08-23T09:42:02.450Z,1190
2017-08-23T09:43:02.810Z,1135
2017-08-23T09:44:02.519Z,1070
2017-08-23T09:45:02.410Z,1150
2017-08-23T09:46:02.820Z,1135
2017-08-23T09:47:02.729Z,1105
2017-08-23T09:48:02.427Z,1035
2017-08-23T09:49:02.426Z,1055
2017-08-23T09:50:02.418Z,1065
2017-08-23T09:51:02.430Z,1080
2017-08-23T09:52:02.492Z,1080
2017-08-23T09:53:02.708Z,1035
2017-08-23T09:54:02.440Z,1035
2017-08-23T09:55:02.720Z,1070
2017-08-23T09:56:02.482Z,1085
2017-08-23T09:57:02.417Z,1005
2017-08-23T09:58:02.440Z,1130
2017-08-23T09:59:02.718Z,1015
2017-08-23T10:00:02.720Z,975
2017-08-23T10:01:02.121Z,1040
2017-08-23T10:02:02.718Z,1010
2017-08-23T10:03:02.587Z,1055
2017-08-23T10:04:02.430Z,985
2017-08-23T10:05:02.422Z,940
2017-08-23T10:06:02.823Z,890
2017-08-23T10:07:02.401Z,950
2017-08-23T10:08:02.730Z,985
2017-08-23T10:09:02.413Z,965
2017-08-23T10:10:02.736Z,865
2017-08-23T10:11:02.441Z,845
2017-08-23T10:12:02.390Z,785
2017-08-23T10:13:02.382Z,765
2017-08-23T10:14:02.731Z,650
2017-08-23T10:15:02.408Z,390
2017-08-23T10:16:02.458Z,345
2017-08-23T10:17:02.367Z,325
2017-08-23T10:18:02.672Z,315
2017-08-23T10:19:02.378Z,300
2017-08-23T10:20:02.666Z,290
2017-08-23T10:21:02.383Z,300
2017-08-23T10:22:02.659Z,325
2017-08-23T10:23:02.340Z,325
2017-08-23T10:24:02.476Z,330
2017-08-23T10:25:02.638Z,325
2017-08-23T10:26:02.629Z,325
2017-08-23T10:27:02.319Z,325
2017-08-23T10:28:02.386Z,325
2017-08-23T10:29:02.618Z,320
2017-08-23T10:30:02.521Z,315
2017-08-23T10:31:02.610Z,315
2017-08-23T10:32:02.293Z,310
2017-08-23T10:33:02.321Z,310
2017-08-23T10:34:02.619Z,305
2017-08-23T10:35:02.632Z,305
2017-08-23T10:36:02.667Z,300
2017-08-23T10:37:02.301Z,295
2017-08-23T10:38:02.585Z,295
2017-08-23T10:39:02.269Z,290
2017-08-23T10:40:02.607Z,290
2017-08-23T10:41:02.615Z,285
2017-08-23T10:42:02.313Z,285
2017-08-23T10:43:02.277Z,285
2017-08-23T10:44:02.560Z,285
2017-08-23T10:45:01.923Z,280
2017-08-23T10:46:02.594Z,280
2017-08-23T10:47:02.510Z,280
2017-08-23T10:48:02.501Z,280
2017-08-23T10:49:02.520Z,285
2017-08-23T10:50:02.540Z,275
2017-08-23T10:51:02.490Z,290
2017-08-23T10:52:02.500Z,275
2017-08-23T10:53:02.491Z,275
2017-08-23T10:54:02.485Z,275
2017-08-23T10:55:02.489Z,275
2017-08-23T10:56:02.176Z,275
2017-08-23T10:57:02.481Z,275
2017-08-23T10:58:02.450Z,270
2017-08-23T10:59:02.452Z,270
2017-08-23T11:00:02.149Z,270
2017-08-23T11:01:02.479Z,270
2017-08-23T11:02:02.457Z,270
2017-08-23T11:03:02.418Z,270
2017-08-23T11:04:02.040Z,270
2017-08-23T11:05:02.440Z,270
2017-08-23T11:06:02.417Z,270
2017-08-23T11:07:02.419Z,270
2017-08-23T11:08:02.478Z,270
2017-08-23T11:09:02.409Z,270
2017-08-23T11:10:02.089Z,270
2017-08-23T11:11:02.168Z,270
2017-08-23T11:12:02.469Z,270
2017-08-23T11:13:01.762Z,270
2017-08-23T11:14:01.769Z,270
2017-08-23T11:15:01.423Z,275
2017-08-23T11:16:02.441Z,270
2017-08-23T11:17:02.363Z,270
2017-08-23T11:18:02.448Z,270
2017-08-23T11:19:02.371Z,270
2017-08-23T11:20:02.402Z,270
2017-08-23T11:21:02.024Z,270
2017-08-23T11:22:02.008Z,270
2017-08-23T11:23:02.350Z,270
2017-08-23T11:24:01.998Z,270
2017-08-23T11:25:02.012Z,270
2017-08-23T11:26:01.999Z,270
2017-08-23T11:27:02.289Z,265
2017-08-23T11:28:01.961Z,275
2017-08-23T11:29:01.944Z,285
2017-08-23T11:30:02.282Z,315
2017-08-23T11:31:01.640Z,335
2017-08-23T11:32:01.937Z,315
2017-08-23T11:33:01.925Z,275
2017-08-23T11:34:02.383Z,270
2017-08-23T11:35:01.924Z,270
2017-08-23T11:36:01.911Z,265
2017-08-23T11:37:02.222Z,275
2017-08-23T11:38:01.895Z,265
2017-08-23T11:39:01.899Z,265
2017-08-23T11:40:01.968Z,265
2017-08-23T11:41:01.958Z,265
2017-08-23T11:42:01.869Z,265
2017-08-23T11:43:01.257Z,265
2017-08-23T11:44:01.237Z,265
2017-08-23T11:45:01.909Z,265
2017-08-23T11:46:01.527Z,265
2017-08-23T11:47:02.129Z,265
2017-08-23T11:48:02.194Z,265
2017-08-23T11:49:01.523Z,265
2017-08-23T11:50:02.148Z,265
2017-08-23T11:51:01.876Z,265
2017-08-23T11:52:02.117Z,265
2017-08-23T11:53:01.498Z,265
2017-08-23T11:54:01.847Z,265
2017-08-23T11:55:01.777Z,265
2017-08-23T11:56:01.988Z,265
2017-08-23T11:57:01.786Z,265
2017-08-23T11:58:01.140Z,265
2017-08-23T11:59:01.748Z,265
2017-08-23T12:00:02.067Z,265
2017-08-23T12:01:02.106Z,265
2017-08-23T12:02:01.553Z,265
2017-08-23T12:03:02.043Z,270
2017-08-23T12:04:01.808Z,270
2017-08-23T12:05:02.028Z,260
2017-08-23T12:06:02.027Z,265
2017-08-23T12:07:02.008Z,260
2017-08-23T12:08:02.008Z,260
2017-08-23T12:09:02.037Z,280
2017-08-23T12:10:02.614Z,285
2017-08-23T12:11:02.013Z,285
2017-08-23T12:12:01.717Z,280
2017-08-23T12:13:02.000Z,270
2017-08-23T12:14:01.357Z,260
2017-08-23T12:15:01.979Z,265
2017-08-23T12:16:01.954Z,260
2017-08-23T12:17:01.664Z,265
2017-08-23T12:18:01.937Z,260
2017-08-23T12:19:01.937Z,265
2017-08-23T12:20:01.708Z,265
2017-08-23T12:21:01.925Z,265
2017-08-23T12:22:01.344Z,265
2017-08-23T12:23:01.299Z,260
2017-08-23T12:24:01.336Z,260
2017-08-23T12:25:01.987Z,255
2017-08-23T12:26:01.674Z,255
2017-08-23T12:27:01.917Z,255
2017-08-23T12:28:01.290Z,255
2017-08-23T12:29:01.259Z,255
2017-08-23T12:30:01.565Z,255
2017-08-23T12:31:00.959Z,245
2017-08-23T12:32:01.658Z,250
2017-08-23T12:33:01.237Z,245
2017-08-23T12:34:02.017Z,240
2017-08-23T12:35:01.847Z,215
2017-08-23T12:36:01.919Z,240
2017-08-23T12:37:01.220Z,240
2017-08-23T12:38:01.206Z,250
2017-08-23T12:39:01.218Z,255
2017-08-23T12:40:01.843Z,250
2017-08-23T12:41:01.488Z,245
2017-08-23T12:42:01.809Z,235
2017-08-23T12:43:01.778Z,230
2017-08-23T12:44:01.777Z,210
2017-08-23T12:45:01.168Z,230
2017-08-23T12:46:01.473Z,250
2017-08-23T12:47:01.778Z,255
2017-08-23T12:48:01.469Z,260
2017-08-23T12:49:01.429Z,265
2017-08-23T12:50:01.432Z,270
2017-08-23T12:51:01.286Z,280
2017-08-23T12:52:01.448Z,240
2017-08-23T12:53:01.731Z,225
2017-08-23T12:54:01.104Z,230
2017-08-23T12:55:01.200Z,210
2017-08-23T12:56:01.403Z,270
2017-08-23T12:57:01.399Z,260
2017-08-23T12:58:01.372Z,265
2017-08-23T12:59:01.078Z,265
2017-08-23T13:00:01.363Z,260
2017-08-23T13:01:01.440Z,255
2017-08-23T13:02:01.363Z,250
2017-08-23T13:03:01.160Z,250
2017-08-23T13:04:01.676Z,240
2017-08-23T13:05:01.772Z,235
2017-08-23T13:06:01.069Z,235
2017-08-23T13:07:01.331Z,245
2017-08-23T13:08:01.379Z,240
2017-08-23T13:09:01.351Z,245
2017-08-23T13:10:01.423Z,240
2017-08-23T13:11:01.640Z,235
2017-08-23T13:12:01.381Z,235
2017-08-23T13:13:01.098Z,215
2017-08-23T13:14:01.663Z,225
2017-08-23T13:15:00.968Z,220
2017-08-23T13:16:00.650Z,230
2017-08-23T13:17:00.655Z,225
2017-08-23T13:18:00.963Z,225
2017-08-23T13:19:01.301Z,220
2017-08-23T13:20:01.298Z,220
2017-08-23T13:21:01.659Z,225
2017-08-23T13:22:01.578Z,220
2017-08-23T13:23:01.252Z,220
2017-08-23T13:24:01.227Z,225
2017-08-23T13:25:01.199Z,225
2017-08-23T13:26:01.227Z,225
2017-08-23T13:27:01.521Z,225
2017-08-23T13:28:00.919Z,220
2017-08-23T13:29:01.492Z,225
2017-08-23T13:30:01.488Z,230
2017-08-23T13:31:01.480Z,230
2017-08-23T13:32:01.192Z,220
2017-08-23T13:33:00.895Z,215
2017-08-23T13:34:01.499Z,210
2017-08-23T13:35:01.171Z,215
2017-08-23T13:36:01.163Z,205
2017-08-23T13:37:00.858Z,210
2017-08-23T13:38:01.450Z,210
2017-08-23T13:39:01.422Z,210
2017-08-23T13:40:01.433Z,210
2017-08-23T13:41:01.127Z,205
2017-08-23T13:42:01.440Z,210
2017-08-23T13:43:01.029Z,210
2017-08-23T13:44:01.110Z,205
2017-08-23T13:45:00.788Z,200
2017-08-23T13:46:01.107Z,190
2017-08-23T13:47:01.106Z,190
2017-08-23T13:48:01.081Z,180
2017-08-23T13:49:00.710Z,185
2017-08-23T13:50:01.432Z,185
2017-08-23T13:51:01.043Z,185
2017-08-23T13:52:01.072Z,200
2017-08-23T13:53:00.421Z,200
2017-08-23T13:54:01.036Z,205
2017-08-23T13:55:00.715Z,205
2017-08-23T13:56:00.768Z,210
2017-08-23T13:57:01.056Z,220
2017-08-23T13:58:01.073Z,220
2017-08-23T13:59:00.726Z,220
2017-08-23T14:00:00.720Z,230
2017-08-23T14:01:00.961Z,230
2017-08-23T14:02:01.311Z,230